Flight Track Log - Related Links

Times and Time Zones

All times are in EDT time to prevent confusion due to time zone crossing. See the DAL3688 flight status page for this flight to view local times or setup timezone preferences in your user account.

Time Position Orientation Groundspeed Altitude Reporting Facility
EDT Latitude Longitude Course Direction KTS MPH feet Rate Location/Type
Mon 10:34:20 AM 42.2017 -83.3583 168° South 163 188 1,300  Level Cleveland Center
Mon 10:34:38 AM 42.1892 -83.3547 168° South 158 182 2,100 2,423 Climbing Cleveland Center
Mon 10:35:12 AM 42.1636 -83.3506 173° South 180 207 3,400 2,333 Climbing FAA TRACON SMA TRACON (SMA)
Mon 10:35:32 AM 42.1486 -83.3481 173° South 184 212 4,200 2,100 Climbing FAA TRACON SMA TRACON (SMA)
Mon 10:35:52 AM 42.1289 -83.3442 172° South 213 245 4,800 1,463 Climbing FAA TRACON SMA TRACON (SMA)
Mon 10:36:13 AM 42.1086 -83.3403 172° South 240 276 5,200 2,049 Climbing FAA TRACON SMA TRACON (SMA)
Mon 10:36:33 AM 42.0908 -83.3217 142° Southeast 271 312 6,200 3,750 Climbing FAA TRACON SMA TRACON (SMA)
Mon 10:36:53 AM 42.0814 -83.2850 109° East 269 310 7,700 3,600 Climbing FAA TRACON SMA TRACON (SMA)
Mon 10:37:13 AM 42.0781 -83.2531 98° East 295 339 8,600 2,850 Climbing FAA TRACON SMA TRACON (SMA)
Mon 10:37:33 AM 42.0842 -83.2158 78° East 304 350 9,600 2,700 Climbing FAA TRACON SMA TRACON (SMA)
Mon 10:37:53 AM 42.0908 -83.1769 77° East 316 364 10,400 2,250 Climbing FAA TRACON SMA TRACON (SMA)
Mon 10:38:13 AM 42.0975 -83.1414 76° East 320 368 11,100 1,800 Climbing FAA TRACON SMA TRACON (SMA)
Mon 10:38:33 AM 42.1050 -83.1000 76° East 331 381 11,600 1,800 Climbing FAA TRACON SMA TRACON (SMA)
Mon 10:38:53 AM 42.1133 -83.0550 76° East 351 404 12,300 2,057 Climbing FAA TRACON SMA TRACON (SMA)
Mon 10:39:08 AM 42.1175 -83.0214 81° East 347 399 12,800 1,765 Climbing Cleveland Center
Mon 10:40:52 AM 42.1617 -82.7917 75° East 370 426 15,800 1,700 Climbing FAA TRACON SMA TRACON (SMA)
Mon 10:41:08 AM 42.1667 -82.7542 80° East 354 407 16,200 1,579 Climbing Cleveland Center
Mon 10:42:08 AM 42.1922 -82.6122 76° East 370 426 17,800 1,450 Climbing Cleveland Center
Mon 10:43:08 AM 42.2175 -82.4644 77° East 385 443 19,100 1,250 Climbing Cleveland Center
Mon 10:44:08 AM 42.2139 -82.3072 92° East 399 459 20,300 1,300 Climbing Cleveland Center
Mon 10:45:08 AM 42.2036 -82.1500 95° East 409 471 21,700 1,400 Climbing Cleveland Center
Mon 10:46:08 AM 42.1928 -82.0069 96° East 421 484 23,100 1,450 Climbing Cleveland Center
Mon 10:47:08 AM 42.1381 -81.8769 120° Southeast 396 456 24,600 1,300 Climbing Cleveland Center
Mon 10:48:08 AM 42.0517 -81.7772 139° Southeast 397 457 25,700 1,050 Climbing Cleveland Center
Mon 10:49:08 AM 41.9631 -81.6778 140° Southeast 413 475 26,700 650 Climbing Cleveland Center
Mon 10:50:08 AM 41.8661 -81.5647 139° Southeast 419 482 27,000 150 Climbing Cleveland Center
Mon 10:51:08 AM 41.7711 -81.4544 139° Southeast 434 499 27,000  Level Cleveland Center
Mon 10:52:08 AM 41.6739 -81.3447 140° Southeast 453 521 27,000  Level Cleveland Center
Mon 10:53:08 AM 41.5767 -81.2356 140° Southeast 458 527 27,000  Level Cleveland Center
Mon 10:54:08 AM 41.4939 -81.1042 130° Southeast 458 527 27,000  Level Cleveland Center
Mon 10:55:08 AM 41.4319 -80.9486 118° Southeast 458 527 27,000  Level Cleveland Center
Mon 10:56:08 AM 41.3781 -80.8072 117° Southeast 467 537 27,000  Level Cleveland Center
Mon 10:57:08 AM 41.3178 -80.6522 117° Southeast 472 543 27,000  Level Cleveland Center
Mon 10:58:08 AM 41.2575 -80.5003 118° Southeast 472 543 27,000  Level Cleveland Center
Mon 10:59:08 AM 41.1989 -80.3514 118° Southeast 451 519 27,000  Level Cleveland Center
Mon 11:00:08 AM 41.1358 -80.1944 118° Southeast 446 513 27,000  Level Cleveland Center
Mon 11:01:08 AM 41.0792 -80.0486 117° Southeast 446 513 27,000 -250 Level Cleveland Center
Mon 11:02:08 AM 41.0219 -79.9061 118° Southeast 446 513 26,500 -750 Descending Cleveland Center
Mon 11:03:08 AM 40.9669 -79.7636 117° Southeast 440 506 25,500 -1,000 Descending Cleveland Center
Mon 11:04:08 AM 40.9094 -79.6269 119° Southeast 435 501 24,500 -1,000 Descending Cleveland Center
Mon 11:05:08 AM 40.8519 -79.4878 119° Southeast 435 501 23,500 -1,000 Descending Cleveland Center
Mon 11:06:08 AM 40.7964 -79.3517 118° Southeast 435 501 22,500 -1,000 Descending Cleveland Center
Mon 11:07:08 AM 40.7386 -79.2103 118° Southeast 435 501 21,500 -750 Descending Cleveland Center
Mon 11:08:08 AM 40.6825 -79.0744 119° Southeast 435 501 21,000 -250 Descending Cleveland Center
Mon 11:09:08 AM 40.6353 -78.9633 119° Southeast 435 501 21,000  Level Cleveland Center
Mon 11:10:08 AM 40.5703 -78.8064 119° Southeast 435 501 21,000  Level Cleveland Center
Mon 11:11:08 AM 40.5303 -78.6544 109° East 435 501 21,000 -450 Level Cleveland Center
Mon 11:12:08 AM 40.5086 -78.4914 100° East 435 501 20,100 -966 Descending Cleveland Center
Mon 11:13:06 AM 40.4878 -78.3444 101° East 441 507 19,100 -1,017 Descending New York Center
Mon 11:14:06 AM 40.4664 -78.1867 100° East 447 514 18,100 -966 Descending New York Center
Mon 11:15:04 AM 40.4428 -78.0286 101° East 441 507 17,200 -950 Descending New York Center
Mon 11:16:06 AM 40.4225 -77.8819 100° East 427 491 16,200 -787 Descending New York Center
Mon 11:17:06 AM 40.4033 -77.7517 101° East 396 456 15,600 -1,000 Descending New York Center
Mon 11:18:06 AM 40.3836 -77.6217 101° East 346 398 14,200 -1,450 Descending New York Center
Mon 11:19:06 AM 40.3675 -77.5056 100° East 321 369 12,700 -1,424 Descending New York Center
Mon 11:20:04 AM 40.3489 -77.3919 102° East 321 369 11,400 -1,373 Descending New York Center
Mon 11:21:04 AM 40.3214 -77.2858 109° East 311 358 10,000 -1,600 Descending New York Center
Mon 11:22:04 AM 40.2850 -77.1872 116° Southeast 305 351 8,200 -1,869 Descending New York Center
Mon 11:23:06 AM 40.2486 -77.0914 116° Southeast 300 345 6,200 -1,574 Descending New York Center
Mon 11:24:06 AM 40.2119 -76.9956 117° Southeast 295 339 5,000 -595 Descending New York Center
Mon 11:25:07 AM 40.1750 -76.9053 118° Southeast 295 339 5,000  Level New York Center
Mon 11:26:04 AM 40.1406 -76.8453 127° Southeast 257 296 5,000 -359 Level New York Center
Mon 11:27:04 AM 40.1067 -76.7744 122° Southeast 213 245 4,300 -984 Descending New York Center
Mon 11:28:06 AM 40.0800 -76.7231 124° Southeast 198 228 3,000 -1,100 Descending New York Center
Mon 11:29:04 AM 40.1075 -76.6767 52° Northeast 140 161 2,100 -610 Descending New York Center
Mon 11:30:04 AM 40.1497 -76.6667 10° North 143 165 1,800 -300 Descending New York Center

Login

Don't have an account? Register now (free) for customized features, flight alerts, and more!